Fairbanks International Airport Fairbanks US
ICAO: PAFA
IATA: FAI
Category: Large
Scheduled Services:

Elevation: 439 ft
TransAlt. 18000 ft.

Airport Communications:
APP:118.6
ASOS:119.025
ATIS:124.4
TWEB:108.2
CLNC DEL:127.6
DEP:32.71
RDO:122.6
GND:121.9
EIELSON RANGE CON:125.3
TWR:118.3
UNICOM:122.95

PAFA Zoom In..

Runways:

(A) RW 02 length 2900 ft width 75 ft
---- / hdg 17

(B) RW 02L length 11800 ft width 150 ft
ILS 109.10 / hdg 17

(C) RW 02R length 6501 ft width 100 ft
---- / hdg 17

(D) RW 20 length 2900 ft width 75 ft
---- / hdg 197

(E) RW 20L length 6501 ft width 100 ft
---- / hdg 197

(F) RW 20R length 11800 ft width 150 ft
ILS 110.30 / hdg 197

Location; PAFA
Day. 25 / Time. 09.53 Zulu
* Altimeter: 29.60
* Temperature: 03° c. 37.4°f.
* Wind from: VRB° Speed 05 kn.
Dewpoint: 01° c.
Visibility: 10 Statute Miles.
Clouds: Few 1700 ft.
Clouds: Broken 5000 ft.
Clouds: Broken 6500 ft.

PAFA 250953Z VRB05KT 10SM -RASN FEW017 BKN050 BKN065 03/01 A2960 RMK AO2 RAB20SNB42 SLP030 P0000 T00330006 $


Wind From VRB°
Speed 05 kn.

  YouTube Music Video
 
jpsmedia.com for Web Design  worldairports.se 2018   terms of use